Impacts METAR Board
IDs:

KGRK - Killeen-Ft Hood Rgnl, TX, US

Updated at: 0300 UTC 06 Dec 2019
Potential Impact None Slight Moderate High
Time 05/15Z 05/16Z 05/17Z 05/18Z 05/19Z 05/20Z 05/21Z 05/22Z 05/23Z 06/00Z 06/01Z 06/02Z 06/03Z
Temp59 62 64 70 73 76 76 74 71 68 67 66 66
Dewpt47 54 57 56 53 53 53 55 55 55 56 57 58
Altim30.01 30.02 30.01 29.98 29.94 29.89 29.88 29.88 29.88 29.90 29.91 29.93 29.94
VIS10 9 9 9 9 9 9 8 7 8 9 8 8
CIG-- 150 140 -- -- -- -- -- -- -- -- -- --
CoverCLROVCBKNCLRCLRCLRFEWFEWFEWCLRCLRCLRCLR
FltCatVFRVFRVFRVFRVFRVFRVFRVFRVFRVFRVFRVFRVFR
WX--------------------------
WDir170180170160170170180160160160170180200
WSpd8 12 13 12 12 16 11 14 14 10 13 12 7
WGst-- -- -- -- 17 21 18 -- -- -- -- -- --
Raw hourly METARs
KGRK 051458Z AUTO 17008KT 10SM CLR 15/08 A3001 RMK AO2 SLP159 T01500082
KGRK 051558Z AUTO 18012KT 9SM OVC150 17/12 A3002 RMK AO2 SLP163 T01690123
KGRK 051658Z AUTO 17013KT 9SM SCT010 BKN140 18/14 A3001 RMK AO2 CIG 011 RWY33 SLP160
KGRK 051758Z AUTO 16012KT 9SM CLR 21/13 A2998 RMK AO2 SLP148 T02120134 10212 20086 58010
KGRK 051858Z AUTO 17012G17KT 9SM CLR 23/12 A2994 RMK AO2 SLP134 T02300119
KGRK 051958Z AUTO 17016G21KT 9SM CLR 25/12 A2989 RMK AO2 SLP117 T02450117
KGRK 052058Z AUTO 18011G18KT 9SM FEW290 25/12 A2988 RMK AO2 SLP113 T02460116 56031
KGRK 052158Z AUTO 16014KT 8SM FEW290 23/13 A2988 RMK AO2 SLP114 T02340129
KGRK 052258Z AUTO 16014KT 7SM FEW310 22/13 A2988 RMK AO2 SLP114 T02190129
KGRK 052358Z AUTO 16010KT 8SM CLR 20/13 A2990 RMK AO2 SLP122 T02020127 10250 20202 53005
KGRK 060058Z AUTO 17013KT 9SM CLR 19/13 A2991 RMK AO2 SLP125 T01920133
KGRK 060158Z AUTO 18012KT 8SM CLR 19/14 A2993 RMK AO2 SLPNO T01870138
KGRK 060258Z AUTO 20007KT 8SM CLR 19/14 A2994 RMK AO2 SLP134 T01900144 52015